This is the latest recevied weather packets stored in our database for station/object AB8KN-2. If no packets are shown the sender has not sent any weather packets the latest 10 day(s).
| Time | Temp. | Humidity | Pressure | Rain* | Wind** | Luminosity | Snow |
|---|---|---|---|---|---|---|---|
| 1777776015 | 3.33° C | 72% | 1016.6 hPa | 0 mm | - | 0 W/m² | - |
| 1777773616 | 5.56° C | 63% | 1016.4 hPa | 0 mm | - | 0 W/m² | - |
| 1777767018 | 7.78° C | 51% | 1016.6 hPa | 0 mm | - | 8 W/m² | - |
| 1777764616 | 7.78° C | 48% | 1016.5 hPa | 0 mm | - | 35 W/m² | - |
| 1777761016 | 8.33° C | 47% | 1016.4 hPa | 0 mm | - | 78 W/m² | - |
| 1777758018 | 8.89° C | 44% | 1016.4 hPa | 0 mm | - | 163 W/m² | - |
| 1777756218 | 8.89° C | 44% | 1016.4 hPa | 0 mm | - | 260 W/m² | - |
| 1777755035 | 9.44° C | 44% | 1016.3 hPa | 0 mm | - | 243 W/m² | - |
| 1777748417 | 8.89° C | 48% | 1017 hPa | 0 mm | - | 391 W/m² | - |
| 1777737017 | 8.89° C | 52% | 1018.3 hPa | 0 mm | - | 833 W/m² | - |
| 1777734018 | 7.78° C | 59% | 1017.6 hPa | 0 mm | - | 301 W/m² | - |
| 1777730416 | 7.22° C | 66% | 1018.2 hPa | 0 mm | - | 571 W/m² | - |
| 1777725617 | 4.44° C | 74% | 1017.8 hPa | 0 mm | - | 290 W/m² | - |
| 1777723218 | 1.67° C | 86% | 1016.6 hPa | 0 mm | - | 46 W/m² | - |
| 1777719017 | 0.56° C | 92% | 1015.9 hPa | 0 mm | - | 10 W/m² | - |
| 1777716617 | 1.11° C | 94% | 1015.9 hPa | 0 mm | - | 0 W/m² | - |
| 1777714218 | 1.11° C | 96% | 1016 hPa | 0 mm | - | 0 W/m² | - |
| 1777713618 | 1.11° C | 96% | 1015.8 hPa | 0 mm | - | 0 W/m² | - |
| 1777712418 | 1.11° C | 97% | 1015.8 hPa | 0 mm | - | 0 W/m² | - |
| 1777710656 | 1.11° C | 97% | 1015.5 hPa | 0 mm | - | 0 W/m² | - |
| 1777707617 | 1.67° C | 97% | 1015.6 hPa | 0 mm | - | 0 W/m² | - |
| 1777707017 | 1.67° C | 97% | 1015.5 hPa | 0 mm | - | 0 W/m² | - |
| 1777705817 | 1.67° C | 97% | 1015.7 hPa | 0 mm | - | 0 W/m² | - |
| 1777704657 | 1.67° C | 97% | 1015.7 hPa | 0 mm | - | 0 W/m² | - |
| 1777704037 | 1.67° C | 97% | 1015.9 hPa | 0 mm | - | 0 W/m² | - |
* Rain latest hour (hover to see other rain measurements)
** Current wind speed in m/s (hover to see current wind gust speed)